sensor_id;sensor_type;location;lat;lon;timestamp;pressure;altitude;pressure_sealevel;temperature;humidity
21779;BME280;11050;52.222;20.916;2023-03-23T00:00:07;99462.78;;;10.17;100.00
21779;BME280;11050;52.222;20.916;2023-03-23T00:02:34;99457.00;;;10.19;100.00
21779;BME280;11050;52.222;20.916;2023-03-23T00:05:07;99462.50;;;10.19;100.00
21779;BME280;11050;52.222;20.916;2023-03-23T00:07:34;99454.25;;;10.14;100.00
21779;BME280;11050;52.222;20.916;2023-03-23T00:10:02;99451.50;;;10.14;100.00
21779;BME280;11050;52.222;20.916;2023-03-23T00:12:31;99459.19;;;10.17;100.00
21779;BME280;11050;52.222;20.916;2023-03-23T00:15:04;99448.50;;;10.10;100.00
21779;BME280;11050;52.222;20.916;2023-03-23T00:17:32;99448.72;;;10.09;100.00
21779;BME280;11050;52.222;20.916;2023-03-23T00:20:02;99453.72;;;10.12;100.00
21779;BME280;11050;52.222;20.916;2023-03-23T00:22:30;99442.13;;;10.05;100.00
21779;BME280;11050;52.222;20.916;2023-03-23T00:24:56;99449.81;;;10.08;100.00
21779;BME280;11050;52.222;20.916;2023-03-23T00:27:23;99439.09;;;10.01;100.00
21779;BME280;11050;52.222;20.916;2023-03-23T00:29:50;99439.09;;;10.01;100.00
21779;BME280;11050;52.222;20.916;2023-03-23T00:32:22;99447.94;;;10.13;100.00
21779;BME280;11050;52.222;20.916;2023-03-23T00:34:54;99448.78;;;10.14;100.00
21779;BME280;11050;52.222;20.916;2023-03-23T00:37:20;99445.47;;;10.17;100.00
21779;BME280;11050;52.222;20.916;2023-03-23T00:39:47;99436.94;;;10.18;100.00
21779;BME280;11050;52.222;20.916;2023-03-23T00:42:15;99445.47;;;10.22;100.00
21779;BME280;11050;52.222;20.916;2023-03-23T00:44:42;99443.28;;;10.24;100.00
21779;BME280;11050;52.222;20.916;2023-03-23T00:47:10;99441.91;;;10.26;100.00
21779;BME280;11050;52.222;20.916;2023-03-23T00:49:37;99441.09;;;10.26;100.00
21779;BME280;11050;52.222;20.916;2023-03-23T00:52:05;99445.22;;;10.28;100.00
21779;BME280;11050;52.222;20.916;2023-03-23T00:54:32;99432.03;;;10.30;100.00
21779;BME280;11050;52.222;20.916;2023-03-23T00:57:00;99434.22;;;10.33;100.00
21779;BME280;11050;52.222;20.916;2023-03-23T00:59:25;99423.00;;;10.35;100.00
21779;BME280;11050;52.222;20.916;2023-03-23T01:01:51;99412.25;;;10.33;100.00
21779;BME280;11050;52.222;20.916;2023-03-23T01:04:17;99421.63;;;10.47;100.00
21779;BME280;11050;52.222;20.916;2023-03-23T01:06:44;99429.03;;;10.52;100.00
21779;BME280;11050;52.222;20.916;2023-03-23T01:09:15;99418.59;;;10.59;100.00
21779;BME280;11050;52.222;20.916;2023-03-23T01:11:43;99413.09;;;10.59;100.00
21779;BME280;11050;52.222;20.916;2023-03-23T01:14:11;99418.56;;;10.64;100.00
21779;BME280;11050;52.222;20.916;2023-03-23T01:16:38;99403.75;;;10.55;100.00
21779;BME280;11050;52.222;20.916;2023-03-23T01:19:04;99416.69;;;10.60;100.00
21779;BME280;11050;52.222;20.916;2023-03-23T01:21:30;99424.63;;;10.66;100.00
21779;BME280;11050;52.222;20.916;2023-03-23T01:23:56;99421.31;;;10.64;100.00
21779;BME280;11050;52.222;20.916;2023-03-23T01:26:26;99422.69;;;10.72;100.00
21779;BME280;11050;52.222;20.916;2023-03-23T01:28:53;99424.06;;;10.69;100.00
21779;BME280;11050;52.222;20.916;2023-03-23T01:31:22;99418.03;;;10.62;100.00
21779;BME280;11050;52.222;20.916;2023-03-23T01:33:49;99424.63;;;10.66;100.00
21779;BME280;11050;52.222;20.916;2023-03-23T01:36:24;99431.78;;;10.67;100.00
21779;BME280;11050;52.222;20.916;2023-03-23T01:38:52;99427.66;;;10.65;100.00
21779;BME280;11050;52.222;20.916;2023-03-23T01:41:20;99436.72;;;10.65;100.00
21779;BME280;11050;52.222;20.916;2023-03-23T01:46:30;99427.38;;;10.66;100.00
21779;BME280;11050;52.222;20.916;2023-03-23T01:49:02;99412.81;;;10.61;100.00
21779;BME280;11050;52.222;20.916;2023-03-23T01:51:35;99394.69;;;10.55;100.00
21779;BME280;11050;52.222;20.916;2023-03-23T01:54:06;99410.34;;;10.64;100.00
21779;BME280;11050;52.222;20.916;2023-03-23T01:56:41;99406.50;;;10.60;100.00
21779;BME280;11050;52.222;20.916;2023-03-23T01:59:12;99408.44;;;10.60;100.00
21779;BME280;11050;52.222;20.916;2023-03-23T02:01:39;99404.84;;;10.64;100.00
21779;BME280;11050;52.222;20.916;2023-03-23T02:04:13;99412.00;;;10.65;100.00
21779;BME280;11050;52.222;20.916;2023-03-23T02:06:41;99402.09;;;10.64;100.00
21779;BME280;11050;52.222;20.916;2023-03-23T02:09:07;99388.09;;;10.61;100.00
21779;BME280;11050;52.222;20.916;2023-03-23T02:11:33;99393.03;;;10.64;100.00
21779;BME280;11050;52.222;20.916;2023-03-23T02:13:59;99388.63;;;10.63;100.00
21779;BME280;11050;52.222;20.916;2023-03-23T02:26:01;99386.97;;;10.72;100.00
21779;BME280;11050;52.222;20.916;2023-03-23T02:31:12;99391.09;;;10.69;100.00
21779;BME280;11050;52.222;20.916;2023-03-23T02:34:17;99394.94;;;10.68;100.00
21779;BME280;11050;52.222;20.916;2023-03-23T02:36:55;99379.03;;;10.65;100.00
21779;BME280;11050;52.222;20.916;2023-03-23T02:39:35;99375.72;;;10.63;100.00
21779;BME280;11050;52.222;20.916;2023-03-23T02:42:08;99382.84;;;10.69;100.00
21779;BME280;11050;52.222;20.916;2023-03-23T02:44:41;99383.41;;;10.71;100.00
21779;BME280;11050;52.222;20.916;2023-03-23T02:47:16;99388.09;;;10.71;100.00
21779;BME280;11050;52.222;20.916;2023-03-23T02:49:47;99383.69;;;10.70;100.00
21779;BME280;11050;52.222;20.916;2023-03-23T02:52:22;99390.81;;;10.76;100.00
21779;BME280;11050;52.222;20.916;2023-03-23T02:54:52;99391.09;;;10.74;100.00
21779;BME280;11050;52.222;20.916;2023-03-23T02:57:20;99380.09;;;10.69;100.00
21779;BME280;11050;52.222;20.916;2023-03-23T02:59:47;99375.72;;;10.63;100.00
21779;BME280;11050;52.222;20.916;2023-03-23T03:02:23;99387.00;;;10.67;100.00
21779;BME280;11050;52.222;20.916;2023-03-23T03:10:42;99377.38;;;10.59;100.00
21779;BME280;11050;52.222;20.916;2023-03-23T03:21:13;99382.59;;;10.56;100.00
21779;BME280;11050;52.222;20.916;2023-03-23T03:23:43;99371.06;;;10.43;100.00
21779;BME280;11050;52.222;20.916;2023-03-23T03:26:13;99390.56;;;10.47;100.00
21779;BME280;11050;52.222;20.916;2023-03-23T03:28:46;99385.34;;;10.45;100.00
21779;BME280;11050;52.222;20.916;2023-03-23T03:31:19;99386.16;;;10.41;100.00
21779;BME280;11050;52.222;20.916;2023-03-23T03:33:46;99388.34;;;10.39;100.00
21779;BME280;11050;52.222;20.916;2023-03-23T03:36:20;99396.06;;;10.32;100.00
21779;BME280;11050;52.222;20.916;2023-03-23T03:38:50;99393.31;;;10.27;100.00
21779;BME280;11050;52.222;20.916;2023-03-23T03:41:18;99382.88;;;10.14;100.00
21779;BME280;11050;52.222;20.916;2023-03-23T03:43:44;99389.19;;;10.14;100.00
21779;BME280;11050;52.222;20.916;2023-03-23T03:46:10;99396.88;;;10.12;100.00
21779;BME280;11050;52.222;20.916;2023-03-23T03:48:36;99387.50;;;10.08;100.00
21779;BME280;11050;52.222;20.916;2023-03-23T03:51:02;99394.09;;;10.07;100.00
21779;BME280;11050;52.222;20.916;2023-03-23T03:53:29;99360.56;;;9.90;100.00
21779;BME280;11050;52.222;20.916;2023-03-23T03:55:56;99373.78;;;9.98;100.00
21779;BME280;11050;52.222;20.916;2023-03-23T03:58:26;99376.22;;;10.00;100.00
21779;BME280;11050;52.222;20.916;2023-03-23T04:01:03;99362.50;;;10.00;100.00
21779;BME280;11050;52.222;20.916;2023-03-23T04:03:29;99354.00;;;9.96;100.00
21779;BME280;11050;52.222;20.916;2023-03-23T04:05:55;99359.50;;;9.96;100.00
21779;BME280;11050;52.222;20.916;2023-03-23T04:08:24;99363.63;;;10.04;100.00
21779;BME280;11050;52.222;20.916;2023-03-23T04:10:50;99368.56;;;10.02;100.00
21779;BME280;11050;52.222;20.916;2023-03-23T04:13:17;99357.03;;;9.95;100.00
21779;BME280;11050;52.222;20.916;2023-03-23T04:15:45;99366.09;;;10.00;100.00
21779;BME280;11050;52.222;20.916;2023-03-23T04:18:12;99365.25;;;9.95;100.00
21779;BME280;11050;52.222;20.916;2023-03-23T04:20:38;99369.13;;;9.99;100.00
21779;BME280;11050;52.222;20.916;2023-03-23T04:23:05;99375.41;;;9.99;100.00
21779;BME280;11050;52.222;20.916;2023-03-23T04:25:30;99346.59;;;9.87;100.00
21779;BME280;11050;52.222;20.916;2023-03-23T04:27:58;99361.97;;;9.98;100.00
21779;BME280;11050;52.222;20.916;2023-03-23T04:30:28;99369.63;;;9.96;100.00
21779;BME280;11050;52.222;20.916;2023-03-23T04:32:56;99372.38;;;9.91;100.00
21779;BME280;11050;52.222;20.916;2023-03-23T04:35:24;99368.53;;;9.92;100.00
21779;BME280;11050;52.222;20.916;2023-03-23T04:37:53;99353.19;;;9.86;100.00
21779;BME280;11050;52.222;20.916;2023-03-23T04:40:20;99359.47;;;9.86;100.00
21779;BME280;11050;52.222;20.916;2023-03-23T04:42:47;99361.66;;;9.84;100.00
21779;BME280;11050;52.222;20.916;2023-03-23T04:45:18;99368.53;;;9.92;100.00
21779;BME280;11050;52.222;20.916;2023-03-23T04:47:51;99366.91;;;9.91;100.00
21779;BME280;11050;52.222;20.916;2023-03-23T04:50:26;99370.19;;;9.93;100.00
21779;BME280;11050;52.222;20.916;2023-03-23T04:52:52;99354.56;;;9.93;100.00
21779;BME280;11050;52.222;20.916;2023-03-23T04:55:20;99343.03;;;9.96;100.00
21779;BME280;11050;52.222;20.916;2023-03-23T04:57:47;99356.50;;;10.08;100.00
21779;BME280;11050;52.222;20.916;2023-03-23T05:00:14;99363.66;;;10.14;100.00
21779;BME280;11050;52.222;20.916;2023-03-23T05:02:43;99353.50;;;10.14;100.00
21779;BME280;11050;52.222;20.916;2023-03-23T05:05:11;99358.72;;;10.26;100.00
21779;BME280;11050;52.222;20.916;2023-03-23T05:07:38;99362.28;;;10.31;100.00
21779;BME280;11050;52.222;20.916;2023-03-23T05:10:06;99358.72;;;10.36;100.00
21779;BME280;11050;52.222;20.916;2023-03-23T05:12:33;99340.31;;;10.36;100.00
21779;BME280;11050;52.222;20.916;2023-03-23T05:14:59;99354.88;;;10.52;100.00
21779;BME280;11050;52.222;20.916;2023-03-23T05:17:26;99344.97;;;10.61;100.00
21779;BME280;11050;52.222;20.916;2023-03-23T05:19:53;99351.81;;;10.69;100.00
21779;BME280;11050;52.222;20.916;2023-03-23T05:22:19;99354.81;;;10.77;100.00
21779;BME280;11050;52.222;20.916;2023-03-23T05:24:47;99349.31;;;10.87;100.00
21779;BME280;11050;52.222;20.916;2023-03-23T05:27:13;99333.91;;;10.91;100.00
21779;BME280;11050;52.222;20.916;2023-03-23T05:29:40;99348.13;;;11.03;100.00
21779;BME280;11050;52.222;20.916;2023-03-23T05:32:07;99348.69;;;11.10;100.00
21779;BME280;11050;52.222;20.916;2023-03-23T05:34:34;99347.00;;;11.14;100.00
21779;BME280;11050;52.222;20.916;2023-03-23T05:37:02;99358.50;;;11.26;100.00
21779;BME280;11050;52.222;20.916;2023-03-23T05:39:30;99364.53;;;11.33;100.00
21779;BME280;11050;52.222;20.916;2023-03-23T05:41:57;99366.16;;;11.39;100.00
21779;BME280;11050;52.222;20.916;2023-03-23T05:44:23;99361.16;;;11.52;100.00
21779;BME280;11050;52.222;20.916;2023-03-23T05:46:49;99358.31;;;11.62;100.00
21779;BME280;11050;52.222;20.916;2023-03-23T05:49:16;99358.34;;;11.67;100.00
21779;BME280;11050;52.222;20.916;2023-03-23T05:51:44;99356.88;;;11.79;100.00
21779;BME280;11050;52.222;20.916;2023-03-23T05:54:12;99364.84;;;11.86;100.00
21779;BME280;11050;52.222;20.916;2023-03-23T05:56:38;99369.22;;;11.87;100.00
21779;BME280;11050;52.222;20.916;2023-03-23T05:59:04;99370.25;;;11.96;100.00
21779;BME280;11050;52.222;20.916;2023-03-23T06:01:30;99360.38;;;11.95;100.00
21779;BME280;11050;52.222;20.916;2023-03-23T06:03:57;99366.38;;;12.02;100.00
21779;BME280;11050;52.222;20.916;2023-03-23T06:06:26;99366.63;;;12.05;100.00
21779;BME280;11050;52.222;20.916;2023-03-23T06:08:52;99364.88;;;12.14;100.00
21779;BME280;11050;52.222;20.916;2023-03-23T06:11:18;99362.97;;;12.15;100.00
21779;BME280;11050;52.222;20.916;2023-03-23T06:13:44;99375.84;;;12.24;100.00
21779;BME280;11050;52.222;20.916;2023-03-23T06:16:10;99377.75;;;12.29;100.00
21779;BME280;11050;52.222;20.916;2023-03-23T06:18:36;99357.88;;;12.32;99.70
21779;BME280;11050;52.222;20.916;2023-03-23T06:21:06;99356.44;;;12.39;99.44
21779;BME280;11050;52.222;20.916;2023-03-23T06:23:32;99369.53;;;12.53;98.39
21779;BME280;11050;52.222;20.916;2023-03-23T06:26:02;99366.16;;;12.61;97.80
21779;BME280;11050;52.222;20.916;2023-03-23T06:28:29;99371.84;;;12.69;97.19
21779;BME280;11050;52.222;20.916;2023-03-23T06:31:03;99375.88;;;12.82;96.09
21779;BME280;11050;52.222;20.916;2023-03-23T06:33:33;99380.22;;;12.88;95.74
21779;BME280;11050;52.222;20.916;2023-03-23T06:36:00;99387.28;;;12.99;95.22
21779;BME280;11050;52.222;20.916;2023-03-23T06:38:26;99378.16;;;13.03;94.12
21779;BME280;11050;52.222;20.916;2023-03-23T06:40:53;99373.91;;;13.16;93.84
21779;BME280;11050;52.222;20.916;2023-03-23T06:43:20;99370.78;;;13.22;93.50
21779;BME280;11050;52.222;20.916;2023-03-23T06:45:46;99379.06;;;13.22;92.81
21779;BME280;11050;52.222;20.916;2023-03-23T06:48:12;99373.47;;;13.27;92.76
21779;BME280;11050;52.222;20.916;2023-03-23T06:50:38;99370.44;;;13.29;91.24
21779;BME280;11050;52.222;20.916;2023-03-23T06:53:04;99374.41;;;13.42;91.43
21779;BME280;11050;52.222;20.916;2023-03-23T06:55:30;99372.94;;;13.49;89.99
21779;BME280;11050;52.222;20.916;2023-03-23T06:57:56;99376.75;;;13.53;89.46
21779;BME280;11050;52.222;20.916;2023-03-23T07:00:24;99380.13;;;13.69;88.42
21779;BME280;11050;52.222;20.916;2023-03-23T07:02:51;99375.22;;;13.84;88.37
21779;BME280;11050;52.222;20.916;2023-03-23T07:05:16;99385.97;;;14.04;86.91
21779;BME280;11050;52.222;20.916;2023-03-23T07:07:42;99388.50;;;14.19;86.33
21779;BME280;11050;52.222;20.916;2023-03-23T07:10:09;99379.19;;;14.34;84.96
21779;BME280;11050;52.222;20.916;2023-03-23T07:12:36;99378.09;;;14.49;83.67
21779;BME280;11050;52.222;20.916;2023-03-23T07:15:06;99383.91;;;14.66;82.10
21779;BME280;11050;52.222;20.916;2023-03-23T07:17:34;99396.84;;;14.70;81.05
21779;BME280;11050;52.222;20.916;2023-03-23T07:20:00;99394.44;;;14.64;80.50
21779;BME280;11050;52.222;20.916;2023-03-23T07:22:26;99389.22;;;14.62;80.37
21779;BME280;11050;52.222;20.916;2023-03-23T07:24:52;99402.44;;;14.65;80.54
21779;BME280;11050;52.222;20.916;2023-03-23T07:27:18;99400.19;;;14.67;80.72
21779;BME280;11050;52.222;20.916;2023-03-23T07:29:44;99401.75;;;14.73;79.73
21779;BME280;11050;52.222;20.916;2023-03-23T07:32:11;99408.00;;;14.79;79.83
21779;BME280;11050;52.222;20.916;2023-03-23T07:34:38;99409.78;;;14.88;79.54
21779;BME280;11050;52.222;20.916;2023-03-23T07:37:05;99394.63;;;14.99;78.66
21779;BME280;11050;52.222;20.916;2023-03-23T07:39:31;99395.03;;;15.06;77.61
21779;BME280;11050;52.222;20.916;2023-03-23T07:41:59;99398.66;;;15.20;76.88
21779;BME280;11050;52.222;20.916;2023-03-23T07:44:25;99411.00;;;15.42;76.28
21779;BME280;11050;52.222;20.916;2023-03-23T07:46:51;99401.38;;;15.53;75.05
21779;BME280;11050;52.222;20.916;2023-03-23T07:49:18;99403.94;;;15.63;73.94
21779;BME280;11050;52.222;20.916;2023-03-23T07:51:45;99393.97;;;15.62;73.72
21779;BME280;11050;52.222;20.916;2023-03-23T07:54:11;99398.06;;;15.78;73.09
21779;BME280;11050;52.222;20.916;2023-03-23T07:56:38;99395.25;;;15.91;71.60
21779;BME280;11050;52.222;20.916;2023-03-23T07:59:07;99407.94;;;16.20;70.63
21779;BME280;11050;52.222;20.916;2023-03-23T08:01:33;99385.09;;;16.36;68.79
21779;BME280;11050;52.222;20.916;2023-03-23T08:04:00;99390.66;;;16.58;67.49
21779;BME280;11050;52.222;20.916;2023-03-23T08:06:27;99394.22;;;16.72;66.91
21779;BME280;11050;52.222;20.916;2023-03-23T08:08:53;99393.31;;;16.85;65.76
21779;BME280;11050;52.222;20.916;2023-03-23T08:11:20;99387.25;;;16.83;65.27
21779;BME280;11050;52.222;20.916;2023-03-23T08:13:47;99388.81;;;16.98;64.67
21779;BME280;11050;52.222;20.916;2023-03-23T08:16:13;99391.50;;;17.12;63.52
21779;BME280;11050;52.222;20.916;2023-03-23T08:18:39;99396.25;;;17.20;62.93
21779;BME280;11050;52.222;20.916;2023-03-23T08:21:07;99385.84;;;17.25;62.62
21779;BME280;11050;52.222;20.916;2023-03-23T08:23:36;99384.72;;;17.35;61.00
21779;BME280;11050;52.222;20.916;2023-03-23T08:26:06;99387.38;;;17.40;61.06
21779;BME280;11050;52.222;20.916;2023-03-23T08:28:37;99369.88;;;17.39;61.28
21779;BME280;11050;52.222;20.916;2023-03-23T08:31:14;99359.50;;;17.53;60.13
21779;BME280;11050;52.222;20.916;2023-03-23T08:33:40;99352.47;;;17.56;59.20
21779;BME280;11050;52.222;20.916;2023-03-23T08:36:08;99342.84;;;17.62;59.71
21779;BME280;11050;52.222;20.916;2023-03-23T08:38:35;99365.28;;;17.82;59.01
21779;BME280;11050;52.222;20.916;2023-03-23T08:41:04;99351.25;;;18.05;58.62
21779;BME280;11050;52.222;20.916;2023-03-23T08:43:32;99361.72;;;18.33;56.68
21779;BME280;11050;52.222;20.916;2023-03-23T08:45:58;99351.75;;;18.24;56.27
21779;BME280;11050;52.222;20.916;2023-03-23T08:48:24;99366.81;;;18.40;56.17
21779;BME280;11050;52.222;20.916;2023-03-23T08:50:51;99366.47;;;18.41;55.91
21779;BME280;11050;52.222;20.916;2023-03-23T08:53:18;99367.00;;;18.43;55.53
21779;BME280;11050;52.222;20.916;2023-03-23T08:55:47;99364.56;;;18.42;53.95
21779;BME280;11050;52.222;20.916;2023-03-23T08:58:13;99355.53;;;18.36;54.13
21779;BME280;11050;52.222;20.916;2023-03-23T09:00:39;99358.81;;;18.38;53.58
21779;BME280;11050;52.222;20.916;2023-03-23T09:03:05;99369.63;;;18.57;53.47
21779;BME280;11050;52.222;20.916;2023-03-23T09:05:31;99379.75;;;18.61;52.40
21779;BME280;11050;52.222;20.916;2023-03-23T09:07:58;99368.47;;;18.49;52.61
21779;BME280;11050;52.222;20.916;2023-03-23T09:10:27;99380.25;;;18.46;52.74
21779;BME280;11050;52.222;20.916;2023-03-23T09:12:54;99372.03;;;18.41;53.19
21779;BME280;11050;52.222;20.916;2023-03-23T09:15:22;99376.00;;;18.49;53.48
21779;BME280;11050;52.222;20.916;2023-03-23T09:17:51;99377.97;;;18.57;53.53
21779;BME280;11050;52.222;20.916;2023-03-23T09:20:21;99346.22;;;18.49;53.04
21779;BME280;11050;52.222;20.916;2023-03-23T09:22:51;99367.31;;;18.59;53.48
21779;BME280;11050;52.222;20.916;2023-03-23T09:25:23;99354.38;;;18.54;53.28
21779;BME280;11050;52.222;20.916;2023-03-23T09:27:56;99377.28;;;18.60;52.20
21779;BME280;11050;52.222;20.916;2023-03-23T09:30:32;99369.63;;;18.57;51.82
21779;BME280;11050;52.222;20.916;2023-03-23T09:33:00;99369.75;;;18.69;52.15
21779;BME280;11050;52.222;20.916;2023-03-23T09:35:27;99363.50;;;18.80;51.99
21779;BME280;11050;52.222;20.916;2023-03-23T09:37:54;99349.38;;;18.94;51.15
21779;BME280;11050;52.222;20.916;2023-03-23T09:40:25;99348.81;;;19.18;50.73
21779;BME280;11050;52.222;20.916;2023-03-23T09:51:18;99334.06;;;20.05;47.23
21779;BME280;11050;52.222;20.916;2023-03-23T09:53:54;99338.19;;;20.28;45.58
21779;BME280;11050;52.222;20.916;2023-03-23T09:56:21;99324.38;;;20.31;45.37
21779;BME280;11050;52.222;20.916;2023-03-23T10:01:48;99328.50;;;20.25;45.19
21779;BME280;11050;52.222;20.916;2023-03-23T10:04:43;99329.34;;;20.26;45.56
21779;BME280;11050;52.222;20.916;2023-03-23T10:07:15;99331.88;;;20.19;44.01
21779;BME280;11050;52.222;20.916;2023-03-23T10:09:47;99322.38;;;19.91;44.37
21779;BME280;11050;52.222;20.916;2023-03-23T10:15:23;99312.31;;;19.98;44.02
21779;BME280;11050;52.222;20.916;2023-03-23T10:18:00;99308.63;;;20.06;42.63
21779;BME280;11050;52.222;20.916;2023-03-23T10:23:08;99301.31;;;20.22;42.59
21779;BME280;11050;52.222;20.916;2023-03-23T10:28:46;99310.03;;;20.21;42.17
21779;BME280;11050;52.222;20.916;2023-03-23T10:31:20;99324.16;;;20.36;41.44
21779;BME280;11050;52.222;20.916;2023-03-23T10:33:51;99304.44;;;20.53;41.21
21779;BME280;11050;52.222;20.916;2023-03-23T10:36:31;99308.53;;;20.89;40.10
21779;BME280;11050;52.222;20.916;2023-03-23T10:39:17;99290.78;;;21.17;39.12
21779;BME280;11050;52.222;20.916;2023-03-23T10:41:44;99303.22;;;21.20;39.07
21779;BME280;11050;52.222;20.916;2023-03-23T10:44:23;99306.97;;;21.36;39.01
21779;BME280;11050;52.222;20.916;2023-03-23T10:47:04;99311.28;;;21.45;38.06
21779;BME280;11050;52.222;20.916;2023-03-23T10:49:45;99298.13;;;21.34;40.02
21779;BME280;11050;52.222;20.916;2023-03-23T10:55:20;99303.81;;;21.74;38.76
21779;BME280;11050;52.222;20.916;2023-03-23T10:58:06;99301.19;;;22.05;37.49
21779;BME280;11050;52.222;20.916;2023-03-23T11:00:33;99315.47;;;22.27;37.51
21779;BME280;11050;52.222;20.916;2023-03-23T11:03:22;99297.06;;;22.26;36.46
21779;BME280;11050;52.222;20.916;2023-03-23T11:06:43;99308.00;;;22.31;37.05
21779;BME280;11050;52.222;20.916;2023-03-23T11:08:56;99298.63;;;22.39;35.94
21779;BME280;11050;52.222;20.916;2023-03-23T11:11:39;99291.75;;;22.65;35.53
21779;BME280;11050;52.222;20.916;2023-03-23T11:14:27;99286.38;;;22.72;34.53
21779;BME280;11050;52.222;20.916;2023-03-23T11:17:03;99290.16;;;22.51;34.79
21779;BME280;11050;52.222;20.916;2023-03-23T11:19:34;99280.88;;;22.47;34.73
21779;BME280;11050;52.222;20.916;2023-03-23T11:24:36;99272.72;;;22.42;33.82
21779;BME280;11050;52.222;20.916;2023-03-23T11:27:05;99277.16;;;22.43;33.37
21779;BME280;11050;52.222;20.916;2023-03-23T11:29:33;99274.91;;;22.49;33.33
21779;BME280;11050;52.222;20.916;2023-03-23T11:34:45;99248.50;;;23.24;32.17
21779;BME280;11050;52.222;20.916;2023-03-23T11:37:40;99272.03;;;23.51;31.21
21779;BME280;11050;52.222;20.916;2023-03-23T11:43:11;99250.72;;;24.38;30.58
21779;BME280;11050;52.222;20.916;2023-03-23T11:45:59;99248.56;;;24.93;30.23
21779;BME280;11050;52.222;20.916;2023-03-23T11:49:00;99242.50;;;25.13;29.26
21779;BME280;11050;52.222;20.916;2023-03-23T11:54:30;99237.09;;;25.50;28.48
21779;BME280;11050;52.222;20.916;2023-03-23T11:56:57;99236.78;;;25.55;28.94
21779;BME280;11050;52.222;20.916;2023-03-23T11:59:30;99222.00;;;25.62;28.32
21779;BME280;11050;52.222;20.916;2023-03-23T12:02:36;99243.13;;;25.26;28.84
21779;BME280;11050;52.222;20.916;2023-03-23T12:08:23;99226.53;;;24.53;30.22
21779;BME280;11050;52.222;20.916;2023-03-23T12:11:15;99229.53;;;24.83;30.41
21779;BME280;11050;52.222;20.916;2023-03-23T12:14:26;99234.50;;;24.28;31.08
21779;BME280;11050;52.222;20.916;2023-03-23T12:30:30;99179.06;;;24.25;31.17
21779;BME280;11050;52.222;20.916;2023-03-23T12:42:26;99190.09;;;23.11;33.87
21779;BME280;11050;52.222;20.916;2023-03-23T12:45:12;99195.28;;;22.78;34.64
21779;BME280;11050;52.222;20.916;2023-03-23T12:47:56;99185.09;;;22.42;35.30
21779;BME280;11050;52.222;20.916;2023-03-23T12:50:45;99211.28;;;22.49;35.73
21779;BME280;11050;52.222;20.916;2023-03-23T12:53:23;99185.78;;;22.67;35.79
21779;BME280;11050;52.222;20.916;2023-03-23T12:56:34;99200.44;;;22.76;35.41
21779;BME280;11050;52.222;20.916;2023-03-23T12:59:19;99182.97;;;22.82;35.64
21779;BME280;11050;52.222;20.916;2023-03-23T13:02:03;99191.13;;;22.56;35.27
21779;BME280;11050;52.222;20.916;2023-03-23T13:04:37;99178.03;;;22.17;35.85
21779;BME280;11050;52.222;20.916;2023-03-23T13:07:12;99206.81;;;21.90;36.88
21779;BME280;11050;52.222;20.916;2023-03-23T13:10:15;99187.75;;;21.80;37.53
21779;BME280;11050;52.222;20.916;2023-03-23T13:12:47;99159.72;;;21.52;38.10
21779;BME280;11050;52.222;20.916;2023-03-23T13:15:46;99179.47;;;21.59;38.30
21779;BME280;11050;52.222;20.916;2023-03-23T13:18:29;99180.47;;;21.39;39.46
21779;BME280;11050;52.222;20.916;2023-03-23T13:21:27;99175.66;;;21.12;40.31
21779;BME280;11050;52.222;20.916;2023-03-23T13:24:08;99164.09;;;20.89;40.84
21779;BME280;11050;52.222;20.916;2023-03-23T13:26:42;99174.22;;;20.82;41.20
21779;BME280;11050;52.222;20.916;2023-03-23T13:29:20;99167.22;;;20.63;41.49
21779;BME280;11050;52.222;20.916;2023-03-23T13:31:48;99181.19;;;20.63;41.51
21779;BME280;11050;52.222;20.916;2023-03-23T13:39:47;99183.72;;;20.44;41.43
21779;BME280;11050;52.222;20.916;2023-03-23T13:50:43;99179.88;;;20.49;42.56
21779;BME280;11050;52.222;20.916;2023-03-23T13:53:26;99187.28;;;20.33;42.88
21779;BME280;11050;52.222;20.916;2023-03-23T13:56:32;99192.75;;;20.09;44.01
21779;BME280;11050;52.222;20.916;2023-03-23T13:59:31;99202.44;;;20.11;44.56
21779;BME280;11050;52.222;20.916;2023-03-23T14:02:41;99193.81;;;20.04;44.62
21779;BME280;11050;52.222;20.916;2023-03-23T14:10:52;99209.47;;;19.76;45.63
21779;BME280;11050;52.222;20.916;2023-03-23T14:14:03;99220.16;;;19.74;46.25
21779;BME280;11050;52.222;20.916;2023-03-23T14:16:41;99218.00;;;19.59;47.31
21779;BME280;11050;52.222;20.916;2023-03-23T14:19:23;99218.38;;;19.49;48.26
21779;BME280;11050;52.222;20.916;2023-03-23T14:21:59;99233.81;;;19.46;48.44
21779;BME280;11050;52.222;20.916;2023-03-23T14:24:27;99223.22;;;19.40;48.92
21779;BME280;11050;52.222;20.916;2023-03-23T14:27:16;99227.22;;;19.22;49.53
21779;BME280;11050;52.222;20.916;2023-03-23T14:29:43;99237.00;;;19.28;49.97
21779;BME280;11050;52.222;20.916;2023-03-23T14:32:17;99235.91;;;19.20;51.25
21779;BME280;11050;52.222;20.916;2023-03-23T14:34:48;99219.88;;;19.17;51.04
21779;BME280;11050;52.222;20.916;2023-03-23T14:37:15;99254.44;;;19.16;50.10
21779;BME280;11050;52.222;20.916;2023-03-23T14:39:47;99246.00;;;19.04;50.88
21779;BME280;11050;52.222;20.916;2023-03-23T14:42:17;99254.88;;;18.98;51.89
21779;BME280;11050;52.222;20.916;2023-03-23T14:44:49;99266.53;;;18.91;52.19
21779;BME280;11050;52.222;20.916;2023-03-23T14:47:40;99258.41;;;18.77;52.52
21779;BME280;11050;52.222;20.916;2023-03-23T14:50:38;99246.00;;;18.66;52.72
21779;BME280;11050;52.222;20.916;2023-03-23T14:53:32;99258.94;;;18.62;52.48
21779;BME280;11050;52.222;20.916;2023-03-23T14:56:04;99254.41;;;18.49;53.73